sensor_id;sensor_type;location;lat;lon;timestamp;pressure;altitude;pressure_sealevel;temperature;humidity
22605;BME280;11469;49.024;8.246;2022-07-06T00:02:20;100982.44;;;18.32;62.00
22605;BME280;11469;49.024;8.246;2022-07-06T00:04:46;100981.97;;;18.19;62.74
22605;BME280;11469;49.024;8.246;2022-07-06T00:07:11;100982.38;;;18.14;62.98
22605;BME280;11469;49.024;8.246;2022-07-06T00:09:39;100985.97;;;18.04;63.29
22605;BME280;11469;49.024;8.246;2022-07-06T00:12:05;100978.66;;;17.99;63.72
22605;BME280;11469;49.024;8.246;2022-07-06T00:14:30;100985.53;;;17.91;64.26
22605;BME280;11469;49.024;8.246;2022-07-06T00:16:56;100990.38;;;17.87;64.45
22605;BME280;11469;49.024;8.246;2022-07-06T00:19:21;100981.03;;;17.86;64.64
22605;BME280;11469;49.024;8.246;2022-07-06T00:21:46;100989.47;;;17.72;65.41
22605;BME280;11469;49.024;8.246;2022-07-06T00:24:12;100991.00;;;17.63;65.52
22605;BME280;11469;49.024;8.246;2022-07-06T00:26:37;100996.56;;;17.45;65.35
22605;BME280;11469;49.024;8.246;2022-07-06T00:29:03;101007.03;;;17.37;65.80
22605;BME280;11469;49.024;8.246;2022-07-06T00:31:28;100996.94;;;17.40;66.72
22605;BME280;11469;49.024;8.246;2022-07-06T00:33:53;101003.25;;;17.19;67.66
22605;BME280;11469;49.024;8.246;2022-07-06T00:36:19;101005.22;;;17.15;68.07
22605;BME280;11469;49.024;8.246;2022-07-06T00:38:44;101010.44;;;17.09;68.09
22605;BME280;11469;49.024;8.246;2022-07-06T00:41:09;101019.41;;;17.15;68.15
22605;BME280;11469;49.024;8.246;2022-07-06T00:43:55;101010.91;;;17.15;68.19
22605;BME280;11469;49.024;8.246;2022-07-06T00:46:31;101017.78;;;17.17;68.41
22605;BME280;11469;49.024;8.246;2022-07-06T00:48:57;101013.75;;;17.18;68.21
22605;BME280;11469;49.024;8.246;2022-07-06T00:51:26;101012.88;;;17.11;68.11
22605;BME280;11469;49.024;8.246;2022-07-06T00:53:55;101012.06;;;17.10;68.05
22605;BME280;11469;49.024;8.246;2022-07-06T00:56:23;101011.22;;;17.06;68.23
22605;BME280;11469;49.024;8.246;2022-07-06T00:58:49;101009.97;;;17.00;68.39
22605;BME280;11469;49.024;8.246;2022-07-06T01:01:14;101006.25;;;16.89;68.99
22605;BME280;11469;49.024;8.246;2022-07-06T01:03:39;101001.31;;;16.82;68.96
22605;BME280;11469;49.024;8.246;2022-07-06T01:06:05;101006.94;;;16.79;69.31
22605;BME280;11469;49.024;8.246;2022-07-06T01:08:31;101008.06;;;16.71;69.81
22605;BME280;11469;49.024;8.246;2022-07-06T01:10:57;101004.81;;;16.69;69.99
22605;BME280;11469;49.024;8.246;2022-07-06T01:13:22;101016.53;;;16.67;70.13
22605;BME280;11469;49.024;8.246;2022-07-06T01:15:48;101005.22;;;16.67;70.42
22605;BME280;11469;49.024;8.246;2022-07-06T01:18:13;101005.22;;;16.67;70.42
22605;BME280;11469;49.024;8.246;2022-07-06T01:20:39;101004.22;;;16.52;70.88
22605;BME280;11469;49.024;8.246;2022-07-06T01:23:04;101003.38;;;16.48;71.17
22605;BME280;11469;49.024;8.246;2022-07-06T01:25:30;101002.94;;;16.46;70.93
22605;BME280;11469;49.024;8.246;2022-07-06T01:27:56;101005.31;;;16.41;70.74
22605;BME280;11469;49.024;8.246;2022-07-06T01:30:21;101003.44;;;16.55;71.01
22605;BME280;11469;49.024;8.246;2022-07-06T01:32:47;100997.59;;;16.38;71.44
22605;BME280;11469;49.024;8.246;2022-07-06T01:35:14;100999.88;;;16.25;72.04
22605;BME280;11469;49.024;8.246;2022-07-06T01:37:41;100997.72;;;16.15;72.73
22605;BME280;11469;49.024;8.246;2022-07-06T01:40:08;101002.53;;;16.11;72.85
22605;BME280;11469;49.024;8.246;2022-07-06T01:42:34;101008.19;;;16.11;72.81
22605;BME280;11469;49.024;8.246;2022-07-06T01:45:00;101004.53;;;16.10;73.00
22605;BME280;11469;49.024;8.246;2022-07-06T01:47:26;101011.38;;;16.09;72.72
22605;BME280;11469;49.024;8.246;2022-07-06T01:49:51;101000.47;;;16.08;72.69
22605;BME280;11469;49.024;8.246;2022-07-06T01:52:17;101000.44;;;16.04;72.54
22605;BME280;11469;49.024;8.246;2022-07-06T01:54:43;101001.97;;;15.98;72.70
22605;BME280;11469;49.024;8.246;2022-07-06T01:57:08;101002.94;;;15.79;73.13
22605;BME280;11469;49.024;8.246;2022-07-06T01:59:34;101012.06;;;15.69;72.74
22605;BME280;11469;49.024;8.246;2022-07-06T02:02:00;101008.03;;;15.70;73.32
22605;BME280;11469;49.024;8.246;2022-07-06T02:04:25;101012.88;;;15.70;73.19
22605;BME280;11469;49.024;8.246;2022-07-06T02:06:50;101011.31;;;15.72;73.00
22605;BME280;11469;49.024;8.246;2022-07-06T02:09:16;101021.31;;;15.66;73.21
22605;BME280;11469;49.024;8.246;2022-07-06T02:11:42;101006.34;;;15.66;73.33
22605;BME280;11469;49.024;8.246;2022-07-06T02:14:07;101010.00;;;15.66;73.03
22605;BME280;11469;49.024;8.246;2022-07-06T02:16:33;101011.16;;;15.62;73.35
22605;BME280;11469;49.024;8.246;2022-07-06T02:18:58;101010.16;;;15.50;74.14
22605;BME280;11469;49.024;8.246;2022-07-06T02:21:23;101010.97;;;15.51;74.07
22605;BME280;11469;49.024;8.246;2022-07-06T02:23:49;101000.50;;;15.51;73.94
22605;BME280;11469;49.024;8.246;2022-07-06T02:26:14;101004.34;;;15.40;75.26
22605;BME280;11469;49.024;8.246;2022-07-06T02:28:40;101004.28;;;15.36;74.99
22605;BME280;11469;49.024;8.246;2022-07-06T02:31:05;101008.63;;;15.30;75.29
22605;BME280;11469;49.024;8.246;2022-07-06T02:33:31;101006.44;;;15.20;75.73
22605;BME280;11469;49.024;8.246;2022-07-06T02:35:56;101011.97;;;15.13;76.10
22605;BME280;11469;49.024;8.246;2022-07-06T02:38:21;101018.72;;;15.05;76.16
22605;BME280;11469;49.024;8.246;2022-07-06T02:40:47;101023.09;;;15.02;76.64
22605;BME280;11469;49.024;8.246;2022-07-06T02:43:12;101017.84;;;15.01;76.14
22605;BME280;11469;49.024;8.246;2022-07-06T02:45:38;101018.16;;;14.96;76.00
22605;BME280;11469;49.024;8.246;2022-07-06T02:48:03;101023.34;;;14.93;75.92
22605;BME280;11469;49.024;8.246;2022-07-06T02:50:29;101029.75;;;14.90;76.32
22605;BME280;11469;49.024;8.246;2022-07-06T02:52:54;101030.13;;;14.89;76.64
22605;BME280;11469;49.024;8.246;2022-07-06T02:55:20;101036.09;;;14.84;76.91
22605;BME280;11469;49.024;8.246;2022-07-06T02:57:46;101036.69;;;14.74;77.30
22605;BME280;11469;49.024;8.246;2022-07-06T03:00:11;101036.75;;;14.77;76.96
22605;BME280;11469;49.024;8.246;2022-07-06T03:02:37;101038.84;;;14.80;77.28
22605;BME280;11469;49.024;8.246;2022-07-06T03:05:03;101039.66;;;14.81;77.25
22605;BME280;11469;49.024;8.246;2022-07-06T03:07:29;101052.06;;;14.76;77.45
22605;BME280;11469;49.024;8.246;2022-07-06T03:09:54;101052.81;;;14.73;77.67
22605;BME280;11469;49.024;8.246;2022-07-06T03:12:19;101054.75;;;14.69;77.83
22605;BME280;11469;49.024;8.246;2022-07-06T03:14:45;101053.81;;;14.62;77.66
22605;BME280;11469;49.024;8.246;2022-07-06T03:17:10;101062.66;;;14.60;77.71
22605;BME280;11469;49.024;8.246;2022-07-06T03:19:35;101064.81;;;14.47;78.01
22605;BME280;11469;49.024;8.246;2022-07-06T03:22:01;101069.38;;;14.36;78.46
22605;BME280;11469;49.024;8.246;2022-07-06T03:24:27;101068.56;;;14.36;79.16
22605;BME280;11469;49.024;8.246;2022-07-06T03:26:53;101075.41;;;14.35;79.33
22605;BME280;11469;49.024;8.246;2022-07-06T03:29:18;101070.94;;;14.34;79.73
22605;BME280;11469;49.024;8.246;2022-07-06T03:31:43;101077.31;;;14.31;79.71
22605;BME280;11469;49.024;8.246;2022-07-06T03:34:09;101079.25;;;14.26;79.63
22605;BME280;11469;49.024;8.246;2022-07-06T03:36:34;101069.59;;;14.27;79.89
22605;BME280;11469;49.024;8.246;2022-07-06T03:39:00;101069.53;;;14.24;80.58
22605;BME280;11469;49.024;8.246;2022-07-06T03:41:25;101066.41;;;14.29;80.00
22605;BME280;11469;49.024;8.246;2022-07-06T03:43:51;101067.91;;;14.23;79.88
22605;BME280;11469;49.024;8.246;2022-07-06T03:46:16;101063.97;;;14.27;79.76
22605;BME280;11469;49.024;8.246;2022-07-06T03:48:41;101072.34;;;14.24;79.93
22605;BME280;11469;49.024;8.246;2022-07-06T03:51:07;101072.28;;;14.20;80.51
22605;BME280;11469;49.024;8.246;2022-07-06T03:53:32;101072.28;;;14.20;80.30
22605;BME280;11469;49.024;8.246;2022-07-06T03:55:58;101066.19;;;14.18;80.98
22605;BME280;11469;49.024;8.246;2022-07-06T03:58:42;101079.53;;;14.21;80.60
22605;BME280;11469;49.024;8.246;2022-07-06T04:01:07;101080.88;;;14.27;80.27
22605;BME280;11469;49.024;8.246;2022-07-06T04:03:33;101081.78;;;14.32;80.08
22605;BME280;11469;49.024;8.246;2022-07-06T04:05:58;101079.22;;;14.42;79.65
22605;BME280;11469;49.024;8.246;2022-07-06T04:08:23;101081.81;;;14.51;79.19
22605;BME280;11469;49.024;8.246;2022-07-06T04:10:49;101084.84;;;14.62;78.83
22605;BME280;11469;49.024;8.246;2022-07-06T04:13:14;101079.03;;;14.74;78.11
22605;BME280;11469;49.024;8.246;2022-07-06T04:15:40;101076.47;;;14.88;77.35
22605;BME280;11469;49.024;8.246;2022-07-06T04:18:05;101079.50;;;14.99;76.84
22605;BME280;11469;49.024;8.246;2022-07-06T04:20:31;101081.75;;;14.89;77.06
22605;BME280;11469;49.024;8.246;2022-07-06T04:22:57;101083.00;;;14.92;77.42
22605;BME280;11469;49.024;8.246;2022-07-06T04:25:23;101077.66;;;14.87;77.64
22605;BME280;11469;49.024;8.246;2022-07-06T04:27:49;101087.09;;;14.94;77.78
22605;BME280;11469;49.024;8.246;2022-07-06T04:30:14;101090.22;;;15.12;77.48
22605;BME280;11469;49.024;8.246;2022-07-06T04:32:40;101090.03;;;15.24;76.78
22605;BME280;11469;49.024;8.246;2022-07-06T04:35:05;101093.09;;;15.39;76.79
22605;BME280;11469;49.024;8.246;2022-07-06T04:37:31;101094.38;;;15.68;75.52
22605;BME280;11469;49.024;8.246;2022-07-06T04:39:57;101088.25;;;15.88;75.27
22605;BME280;11469;49.024;8.246;2022-07-06T04:42:22;101100.34;;;16.15;73.92
22605;BME280;11469;49.024;8.246;2022-07-06T04:44:48;101099.91;;;16.43;73.22
22605;BME280;11469;49.024;8.246;2022-07-06T04:47:13;101097.63;;;16.56;71.82
22605;BME280;11469;49.024;8.246;2022-07-06T04:49:39;101109.31;;;16.54;71.90
22605;BME280;11469;49.024;8.246;2022-07-06T04:52:04;101097.00;;;16.70;70.73
22605;BME280;11469;49.024;8.246;2022-07-06T04:54:30;101098.59;;;16.67;71.27
22605;BME280;11469;49.024;8.246;2022-07-06T04:56:56;101112.19;;;16.88;70.68
22605;BME280;11469;49.024;8.246;2022-07-06T04:59:21;101110.22;;;16.92;69.94
22605;BME280;11469;49.024;8.246;2022-07-06T05:01:47;101107.06;;;17.01;70.28
22605;BME280;11469;49.024;8.246;2022-07-06T05:04:12;101109.50;;;17.02;70.20
22605;BME280;11469;49.024;8.246;2022-07-06T05:06:38;101109.53;;;17.06;69.99
22605;BME280;11469;49.024;8.246;2022-07-06T05:09:04;101113.28;;;17.17;70.27
22605;BME280;11469;49.024;8.246;2022-07-06T05:11:29;101107.75;;;17.31;69.40
22605;BME280;11469;49.024;8.246;2022-07-06T05:13:54;101114.34;;;17.42;69.46
22605;BME280;11469;49.024;8.246;2022-07-06T05:16:21;101116.47;;;17.56;68.74
22605;BME280;11469;49.024;8.246;2022-07-06T05:18:47;101119.09;;;17.75;68.80
22605;BME280;11469;49.024;8.246;2022-07-06T05:21:13;101115.13;;;17.87;68.38
22605;BME280;11469;49.024;8.246;2022-07-06T05:23:39;101124.97;;;17.56;70.01
22605;BME280;11469;49.024;8.246;2022-07-06T05:26:04;101122.44;;;17.44;70.95
22605;BME280;11469;49.024;8.246;2022-07-06T05:28:29;101120.75;;;17.36;72.76
22605;BME280;11469;49.024;8.246;2022-07-06T05:30:55;101123.38;;;17.58;72.03
22605;BME280;11469;49.024;8.246;2022-07-06T05:33:20;101122.81;;;17.86;70.91
22605;BME280;11469;49.024;8.246;2022-07-06T05:35:46;101130.59;;;18.00;70.20
22605;BME280;11469;49.024;8.246;2022-07-06T05:38:11;101126.94;;;18.00;69.98
22605;BME280;11469;49.024;8.246;2022-07-06T05:40:37;101130.22;;;18.05;69.80
22605;BME280;11469;49.024;8.246;2022-07-06T05:43:03;101129.63;;;18.40;69.22
22605;BME280;11469;49.024;8.246;2022-07-06T05:45:28;101138.97;;;18.51;66.43
22605;BME280;11469;49.024;8.246;2022-07-06T05:47:57;101133.06;;;18.85;64.90
22605;BME280;11469;49.024;8.246;2022-07-06T05:50:40;101138.28;;;18.65;63.72
22605;BME280;11469;49.024;8.246;2022-07-06T05:53:06;101140.81;;;19.02;62.80
22605;BME280;11469;49.024;8.246;2022-07-06T05:55:32;101129.09;;;19.18;63.43
22605;BME280;11469;49.024;8.246;2022-07-06T05:57:58;101134.38;;;19.48;59.78
22605;BME280;11469;49.024;8.246;2022-07-06T06:00:24;101133.63;;;19.72;60.84
22605;BME280;11469;49.024;8.246;2022-07-06T06:02:50;101134.44;;;19.62;59.60
22605;BME280;11469;49.024;8.246;2022-07-06T06:05:16;101137.59;;;19.07;59.03
22605;BME280;11469;49.024;8.246;2022-07-06T06:07:42;101135.53;;;18.90;59.12
22605;BME280;11469;49.024;8.246;2022-07-06T06:10:10;101143.22;;;18.86;58.42
22605;BME280;11469;49.024;8.246;2022-07-06T06:12:37;101144.66;;;18.51;60.45
22605;BME280;11469;49.024;8.246;2022-07-06T06:15:02;101144.69;;;18.55;60.61
22605;BME280;11469;49.024;8.246;2022-07-06T06:17:28;101145.72;;;18.18;61.50
22605;BME280;11469;49.024;8.246;2022-07-06T06:19:53;101148.59;;;18.26;61.83
22605;BME280;11469;49.024;8.246;2022-07-06T06:22:19;101143.81;;;18.40;61.04
22605;BME280;11469;49.024;8.246;2022-07-06T06:24:45;101145.25;;;18.85;59.90
22605;BME280;11469;49.024;8.246;2022-07-06T06:27:11;101146.09;;;19.07;58.55
22605;BME280;11469;49.024;8.246;2022-07-06T06:29:36;101148.59;;;19.48;57.98
22605;BME280;11469;49.024;8.246;2022-07-06T06:32:02;101155.53;;;19.58;56.39
22605;BME280;11469;49.024;8.246;2022-07-06T06:34:27;101155.88;;;19.17;56.36
22605;BME280;11469;49.024;8.246;2022-07-06T06:36:52;101151.91;;;19.75;55.70
22605;BME280;11469;49.024;8.246;2022-07-06T06:39:18;101155.13;;;19.95;55.51
22605;BME280;11469;49.024;8.246;2022-07-06T06:41:43;101144.97;;;19.54;55.76
22605;BME280;11469;49.024;8.246;2022-07-06T06:44:09;101156.72;;;19.46;56.11
22605;BME280;11469;49.024;8.246;2022-07-06T06:46:34;101163.28;;;19.71;56.15
22605;BME280;11469;49.024;8.246;2022-07-06T06:48:59;101160.41;;;19.53;55.40
22605;BME280;11469;49.024;8.246;2022-07-06T06:51:25;101164.41;;;19.38;57.27
22605;BME280;11469;49.024;8.246;2022-07-06T06:53:50;101157.59;;;19.75;55.36
22605;BME280;11469;49.024;8.246;2022-07-06T06:56:16;101160.81;;;19.52;55.46
22605;BME280;11469;49.024;8.246;2022-07-06T06:58:42;101155.53;;;19.54;55.87
22605;BME280;11469;49.024;8.246;2022-07-06T07:01:08;101162.84;;;19.51;56.02
22605;BME280;11469;49.024;8.246;2022-07-06T07:03:34;101153.91;;;19.85;54.98
22605;BME280;11469;49.024;8.246;2022-07-06T07:05:59;101149.81;;;20.14;55.08
22605;BME280;11469;49.024;8.246;2022-07-06T07:08:24;101156.72;;;20.13;53.36
22605;BME280;11469;49.024;8.246;2022-07-06T07:10:51;101160.44;;;19.78;53.86
22605;BME280;11469;49.024;8.246;2022-07-06T07:13:16;101157.56;;;19.96;53.47
22605;BME280;11469;49.024;8.246;2022-07-06T07:15:42;101163.66;;;19.98;53.20
22605;BME280;11469;49.024;8.246;2022-07-06T07:18:07;101161.22;;;20.11;52.26
22605;BME280;11469;49.024;8.246;2022-07-06T07:20:33;101156.69;;;20.31;52.33
22605;BME280;11469;49.024;8.246;2022-07-06T07:22:59;101162.47;;;19.74;52.52
22605;BME280;11469;49.024;8.246;2022-07-06T07:25:25;101160.84;;;19.66;53.58
22605;BME280;11469;49.024;8.246;2022-07-06T07:27:51;101157.53;;;20.17;53.09
22605;BME280;11469;49.024;8.246;2022-07-06T07:30:16;101166.91;;;19.93;53.09
22605;BME280;11469;49.024;8.246;2022-07-06T07:32:42;101168.94;;;19.96;53.73
22605;BME280;11469;49.024;8.246;2022-07-06T07:35:07;101163.25;;;19.89;52.55
22605;BME280;11469;49.024;8.246;2022-07-06T07:37:33;101166.53;;;19.80;53.69
22605;BME280;11469;49.024;8.246;2022-07-06T07:39:59;101157.56;;;19.96;52.79
22605;BME280;11469;49.024;8.246;2022-07-06T07:42:25;101161.25;;;19.75;53.90
22605;BME280;11469;49.024;8.246;2022-07-06T07:44:51;101171.78;;;20.07;53.32
22605;BME280;11469;49.024;8.246;2022-07-06T07:47:16;101157.94;;;20.19;52.13
22605;BME280;11469;49.024;8.246;2022-07-06T07:49:42;101151.41;;;20.40;51.57
22605;BME280;11469;49.024;8.246;2022-07-06T07:52:07;101148.63;;;20.01;52.69
22605;BME280;11469;49.024;8.246;2022-07-06T07:54:33;101141.63;;;20.48;51.65
22605;BME280;11469;49.024;8.246;2022-07-06T07:56:58;101147.78;;;20.11;51.81
22605;BME280;11469;49.024;8.246;2022-07-06T07:59:24;101148.63;;;19.51;53.85
22605;BME280;11469;49.024;8.246;2022-07-06T08:01:49;101158.41;;;19.75;51.98
22605;BME280;11469;49.024;8.246;2022-07-06T08:04:15;101148.19;;;19.46;53.55
22605;BME280;11469;49.024;8.246;2022-07-06T08:06:40;101147.03;;;19.75;52.98
22605;BME280;11469;49.024;8.246;2022-07-06T08:09:06;101148.19;;;20.13;52.34
22605;BME280;11469;49.024;8.246;2022-07-06T08:11:33;101152.66;;;20.14;51.47
22605;BME280;11469;49.024;8.246;2022-07-06T08:13:59;101148.13;;;20.42;50.74
22605;BME280;11469;49.024;8.246;2022-07-06T08:16:25;101139.16;;;20.58;50.78
22605;BME280;11469;49.024;8.246;2022-07-06T08:18:50;101147.97;;;20.84;50.29
22605;BME280;11469;49.024;8.246;2022-07-06T08:21:16;101148.91;;;20.53;50.71
22605;BME280;11469;49.024;8.246;2022-07-06T08:23:41;101136.16;;;20.86;50.42
22605;BME280;11469;49.024;8.246;2022-07-06T08:26:07;101143.09;;;20.81;49.71
22605;BME280;11469;49.024;8.246;2022-07-06T08:28:32;101144.28;;;20.87;50.92
22605;BME280;11469;49.024;8.246;2022-07-06T08:30:58;101140.56;;;21.01;49.29
22605;BME280;11469;49.024;8.246;2022-07-06T08:33:23;101142.59;;;21.01;49.36
22605;BME280;11469;49.024;8.246;2022-07-06T08:35:49;101149.97;;;20.95;50.23
22605;BME280;11469;49.024;8.246;2022-07-06T08:38:14;101143.97;;;20.71;49.59
22605;BME280;11469;49.024;8.246;2022-07-06T08:40:40;101140.34;;;20.64;49.47
22605;BME280;11469;49.024;8.246;2022-07-06T08:43:06;101155.00;;;20.66;49.92
22605;BME280;11469;49.024;8.246;2022-07-06T08:45:34;101154.91;;;20.80;49.69
22605;BME280;11469;49.024;8.246;2022-07-06T08:48:05;101143.06;;;20.88;49.76
22605;BME280;11469;49.024;8.246;2022-07-06T08:50:32;101154.91;;;20.80;50.62
22605;BME280;11469;49.024;8.246;2022-07-06T08:52:57;101151.44;;;21.20;49.37
22605;BME280;11469;49.024;8.246;2022-07-06T08:55:25;101153.06;;;21.25;49.42
22605;BME280;11469;49.024;8.246;2022-07-06T08:57:51;101159.09;;;21.38;49.03
22605;BME280;11469;49.024;8.246;2022-07-06T09:00:16;101152.94;;;21.43;48.19
22605;BME280;11469;49.024;8.246;2022-07-06T09:02:43;101150.47;;;21.48;48.00
22605;BME280;11469;49.024;8.246;2022-07-06T09:05:09;101157.44;;;21.40;48.04
22605;BME280;11469;49.024;8.246;2022-07-06T09:07:40;101156.91;;;21.60;48.50
22605;BME280;11469;49.024;8.246;2022-07-06T09:10:07;101151.84;;;21.78;48.87
22605;BME280;11469;49.024;8.246;2022-07-06T09:12:33;101158.19;;;21.51;47.83
22605;BME280;11469;49.024;8.246;2022-07-06T09:14:58;101155.78;;;21.43;48.48
22605;BME280;11469;49.024;8.246;2022-07-06T09:17:27;101159.09;;;21.38;48.27
22605;BME280;11469;49.024;8.246;2022-07-06T09:19:54;101158.06;;;21.00;49.60
22605;BME280;11469;49.024;8.246;2022-07-06T09:22:28;101160.03;;;21.17;49.83
22605;BME280;11469;49.024;8.246;2022-07-06T09:25:02;101168.56;;;21.20;49.42
22605;BME280;11469;49.024;8.246;2022-07-06T09:27:28;101153.38;;;20.58;50.78
22605;BME280;11469;49.024;8.246;2022-07-06T09:29:54;101151.91;;;21.08;50.16
22605;BME280;11469;49.024;8.246;2022-07-06T09:32:20;101159.66;;;21.08;49.97
22605;BME280;11469;49.024;8.246;2022-07-06T09:34:46;101152.97;;;21.36;49.63
22605;BME280;11469;49.024;8.246;2022-07-06T09:37:13;101155.00;;;21.39;49.62
22605;BME280;11469;49.024;8.246;2022-07-06T09:39:39;101156.31;;;21.79;48.49
22605;BME280;11469;49.024;8.246;2022-07-06T09:42:06;101148.94;;;22.26;47.55
22605;BME280;11469;49.024;8.246;2022-07-06T09:44:39;101148.69;;;22.51;47.37
22605;BME280;11469;49.024;8.246;2022-07-06T09:47:10;101149.75;;;22.27;46.83
22605;BME280;11469;49.024;8.246;2022-07-06T09:49:37;101149.31;;;21.87;48.37
22605;BME280;11469;49.024;8.246;2022-07-06T09:52:06;101146.78;;;21.51;48.93
22605;BME280;11469;49.024;8.246;2022-07-06T09:54:36;101145.22;;;22.33;47.57
22605;BME280;11469;49.024;8.246;2022-07-06T09:57:02;101150.72;;;22.50;47.00
22605;BME280;11469;49.024;8.246;2022-07-06T09:59:31;101154.41;;;22.13;48.31
22605;BME280;11469;49.024;8.246;2022-07-06T10:02:02;101151.41;;;22.24;47.35
22605;BME280;11469;49.024;8.246;2022-07-06T10:04:29;101158.63;;;22.36;47.40
22605;BME280;11469;49.024;8.246;2022-07-06T10:06:56;101151.78;;;21.85;49.04
22605;BME280;11469;49.024;8.246;2022-07-06T10:09:23;101150.56;;;21.82;50.09
22605;BME280;11469;49.024;8.246;2022-07-06T10:11:57;101151.19;;;22.08;48.41
22605;BME280;11469;49.024;8.246;2022-07-06T10:14:25;101151.38;;;22.28;48.09
22605;BME280;11469;49.024;8.246;2022-07-06T10:16:52;101149.22;;;22.73;48.17
22605;BME280;11469;49.024;8.246;2022-07-06T10:19:19;101164.69;;;23.09;46.52
22605;BME280;11469;49.024;8.246;2022-07-06T10:21:46;101152.88;;;23.34;46.33
22605;BME280;11469;49.024;8.246;2022-07-06T10:24:12;101157.44;;;23.59;45.63
22605;BME280;11469;49.024;8.246;2022-07-06T10:26:39;101159.72;;;23.67;45.46
22605;BME280;11469;49.024;8.246;2022-07-06T10:29:06;101161.25;;;23.75;44.46
22605;BME280;11469;49.024;8.246;2022-07-06T10:31:33;101166.97;;;23.48;45.76
22605;BME280;11469;49.024;8.246;2022-07-06T10:34:00;101161.72;;;23.43;44.46
22605;BME280;11469;49.024;8.246;2022-07-06T10:36:27;101162.97;;;23.42;45.74
22605;BME280;11469;49.024;8.246;2022-07-06T10:38:53;101162.94;;;23.46;45.94
22605;BME280;11469;49.024;8.246;2022-07-06T10:41:30;101161.03;;;23.36;45.75
22605;BME280;11469;49.024;8.246;2022-07-06T10:43:56;101159.34;;;23.38;44.54
22605;BME280;11469;49.024;8.246;2022-07-06T10:46:23;101151.41;;;23.53;44.65
22605;BME280;11469;49.024;8.246;2022-07-06T10:48:52;101154.03;;;23.40;45.03
22605;BME280;11469;49.024;8.246;2022-07-06T10:51:25;101153.25;;;23.36;45.54
22605;BME280;11469;49.024;8.246;2022-07-06T10:56:38;101157.25;;;23.69;45.72
22605;BME280;11469;49.024;8.246;2022-07-06T11:01:40;101155.59;;;23.95;44.87
22605;BME280;11469;49.024;8.246;2022-07-06T11:04:07;101159.03;;;24.10;43.66
22605;BME280;11469;49.024;8.246;2022-07-06T11:06:39;101144.63;;;23.90;43.77
22605;BME280;11469;49.024;8.246;2022-07-06T11:09:10;101147.81;;;23.96;44.00
22605;BME280;11469;49.024;8.246;2022-07-06T11:14:01;101134.69;;;24.18;43.65
22605;BME280;11469;49.024;8.246;2022-07-06T11:16:29;101137.03;;;24.27;43.24
22605;BME280;11469;49.024;8.246;2022-07-06T11:19:15;101134.78;;;24.14;42.84
22605;BME280;11469;49.024;8.246;2022-07-06T11:21:46;101131.97;;;24.11;43.56
22605;BME280;11469;49.024;8.246;2022-07-06T11:24:17;101138.50;;;24.11;43.01
22605;BME280;11469;49.024;8.246;2022-07-06T11:26:45;101137.34;;;24.09;42.58
22605;BME280;11469;49.024;8.246;2022-07-06T11:29:13;101133.38;;;24.23;42.52
22605;BME280;11469;49.024;8.246;2022-07-06T11:31:44;101133.31;;;24.50;42.07
22605;BME280;11469;49.024;8.246;2022-07-06T11:34:18;101122.38;;;24.44;42.30
22605;BME280;11469;49.024;8.246;2022-07-06T11:36:44;101118.88;;;23.90;43.14
22605;BME280;11469;49.024;8.246;2022-07-06T11:39:09;101124.91;;;23.72;43.61
22605;BME280;11469;49.024;8.246;2022-07-06T11:41:35;101124.06;;;23.48;43.43
22605;BME280;11469;49.024;8.246;2022-07-06T11:44:02;101126.03;;;23.55;43.24
22605;BME280;11469;49.024;8.246;2022-07-06T11:46:31;101116.88;;;23.64;42.71
22605;BME280;11469;49.024;8.246;2022-07-06T11:49:03;101116.06;;;23.63;43.38
22605;BME280;11469;49.024;8.246;2022-07-06T11:51:31;101116.59;;;23.58;42.86
22605;BME280;11469;49.024;8.246;2022-07-06T11:53:58;101107.13;;;23.85;41.78
22605;BME280;11469;49.024;8.246;2022-07-06T11:56:30;101100.09;;;24.32;41.90
22605;BME280;11469;49.024;8.246;2022-07-06T11:58:57;101104.69;;;24.86;41.23
22605;BME280;11469;49.024;8.246;2022-07-06T12:01:25;101108.94;;;25.33;41.02
22605;BME280;11469;49.024;8.246;2022-07-06T12:03:52;101101.69;;;25.45;38.96
22605;BME280;11469;49.024;8.246;2022-07-06T12:06:18;101098.91;;;25.41;39.34
22605;BME280;11469;49.024;8.246;2022-07-06T12:08:49;101089.75;;;25.63;40.24
22605;BME280;11469;49.024;8.246;2022-07-06T12:11:23;101095.75;;;25.36;39.67
22605;BME280;11469;49.024;8.246;2022-07-06T12:13:54;101100.88;;;25.44;38.61
22605;BME280;11469;49.024;8.246;2022-07-06T12:16:21;101084.53;;;25.25;38.21
22605;BME280;11469;49.024;8.246;2022-07-06T12:18:49;101080.84;;;25.57;38.60
22605;BME280;11469;49.024;8.246;2022-07-06T12:21:18;101082.38;;;25.13;38.77
22605;BME280;11469;49.024;8.246;2022-07-06T12:23:48;101078.53;;;25.03;37.80
22605;BME280;11469;49.024;8.246;2022-07-06T12:26:15;101078.41;;;25.07;39.90
22605;BME280;11469;49.024;8.246;2022-07-06T12:28:42;101075.78;;;25.49;38.25
22605;BME280;11469;49.024;8.246;2022-07-06T12:31:09;101069.06;;;25.71;37.61
22605;BME280;11469;49.024;8.246;2022-07-06T12:33:34;101077.84;;;25.81;36.34
22605;BME280;11469;49.024;8.246;2022-07-06T12:36:11;101075.03;;;25.61;37.68
22605;BME280;11469;49.024;8.246;2022-07-06T12:38:44;101065.53;;;25.80;37.02
22605;BME280;11469;49.024;8.246;2022-07-06T12:41:09;101069.84;;;25.72;37.18
22605;BME280;11469;49.024;8.246;2022-07-06T12:43:40;101064.66;;;25.83;37.53
22605;BME280;11469;49.024;8.246;2022-07-06T12:46:31;101069.91;;;26.30;38.39
22605;BME280;11469;49.024;8.246;2022-07-06T12:48:58;101059.41;;;25.94;36.66
22605;BME280;11469;49.024;8.246;2022-07-06T12:51:25;101052.81;;;25.65;37.09
22605;BME280;11469;49.024;8.246;2022-07-06T12:53:51;101060.16;;;25.33;38.00
22605;BME280;11469;49.024;8.246;2022-07-06T12:56:17;101060.16;;;25.33;38.23